createdAt,value
2022-10-16T00:01:29.078Z,15.47
2022-10-16T00:03:56.456Z,15.44
2022-10-16T00:06:23.464Z,15.45
2022-10-16T00:08:51.040Z,15.45
2022-10-16T00:11:23.173Z,15.45
2022-10-16T00:13:51.967Z,15.43
2022-10-16T00:16:19.482Z,15.40
2022-10-16T00:18:46.755Z,15.38
2022-10-16T00:21:23.489Z,15.38
2022-10-16T00:24:00.076Z,15.36
2022-10-16T00:26:27.969Z,15.34
2022-10-16T00:28:54.463Z,15.32
2022-10-16T00:31:22.859Z,15.31
2022-10-16T00:33:50.285Z,15.28
2022-10-16T00:36:19.558Z,15.25
2022-10-16T00:38:46.489Z,15.23
2022-10-16T00:41:18.225Z,15.23
2022-10-16T00:43:47.143Z,15.22
2022-10-16T00:46:20.757Z,15.22
2022-10-16T00:48:58.499Z,15.20
2022-10-16T00:51:32.389Z,15.20
2022-10-16T00:53:59.824Z,15.19
2022-10-16T00:56:26.887Z,15.15
2022-10-16T00:58:53.442Z,15.14
2022-10-16T01:01:20.292Z,15.11
2022-10-16T01:03:46.792Z,15.10
2022-10-16T01:06:36.395Z,15.09
2022-10-16T01:09:08.061Z,15.07
2022-10-16T01:11:42.720Z,15.05
2022-10-16T01:14:20.767Z,15.05
2022-10-16T01:17:01.581Z,15.02
2022-10-16T01:20:02.435Z,14.95
2022-10-16T01:22:39.675Z,14.99
2022-10-16T01:25:13.488Z,14.96
2022-10-16T01:27:42.321Z,14.90
2022-10-16T01:30:15.001Z,14.91
2022-10-16T01:33:25.404Z,14.88
2022-10-16T01:36:00.658Z,14.85
2022-10-16T01:38:33.322Z,14.85
2022-10-16T01:41:05.017Z,14.82
2022-10-16T01:43:47.405Z,14.81
2022-10-16T01:46:19.354Z,14.78
2022-10-16T01:48:46.754Z,14.76
2022-10-16T01:51:16.253Z,14.76
2022-10-16T01:53:47.516Z,14.76
2022-10-16T01:56:16.321Z,14.74
2022-10-16T01:58:48.451Z,14.69
2022-10-16T02:01:17.792Z,14.64
2022-10-16T02:03:46.993Z,14.61
2022-10-16T02:06:13.388Z,14.63
2022-10-16T02:08:41.416Z,14.65
2022-10-16T02:11:07.935Z,14.62
2022-10-16T02:13:42.238Z,14.66
2022-10-16T02:16:11.224Z,14.68
2022-10-16T02:18:37.662Z,14.69
2022-10-16T02:21:10.810Z,14.69
2022-10-16T02:23:53.388Z,14.72
2022-10-16T02:26:31.331Z,14.72
2022-10-16T02:29:07.319Z,14.73
2022-10-16T02:31:37.072Z,14.71
2022-10-16T02:34:06.715Z,14.79
2022-10-16T02:36:35.707Z,14.77
2022-10-16T02:39:04.708Z,14.72
2022-10-16T02:41:32.062Z,14.74
2022-10-16T02:43:58.429Z,14.71
2022-10-16T02:46:24.883Z,14.73
2022-10-16T02:48:51.328Z,14.75
2022-10-16T02:51:17.767Z,14.77
2022-10-16T02:53:44.187Z,14.78
2022-10-16T02:56:10.822Z,14.79
2022-10-16T02:58:37.214Z,14.81
2022-10-16T03:01:03.745Z,14.80
2022-10-16T03:03:30.288Z,14.82
2022-10-16T03:05:56.642Z,14.82
2022-10-16T03:08:24.633Z,14.82
2022-10-16T03:10:51.868Z,14.83
2022-10-16T03:13:21.212Z,14.82
2022-10-16T03:15:47.603Z,14.81
2022-10-16T03:18:14.037Z,14.81
2022-10-16T03:20:40.457Z,14.80
2022-10-16T03:23:09.067Z,14.81
2022-10-16T03:25:35.659Z,14.81
2022-10-16T03:28:02.539Z,14.78
2022-10-16T03:30:29.276Z,14.75
2022-10-16T03:32:55.734Z,14.71
2022-10-16T03:35:23.386Z,14.66
2022-10-16T03:37:50.168Z,14.63
2022-10-16T03:40:17.490Z,14.62
2022-10-16T03:42:44.862Z,14.62
2022-10-16T03:45:11.997Z,14.57
2022-10-16T03:47:38.484Z,14.59
2022-10-16T03:50:05.725Z,14.58
2022-10-16T03:52:33.018Z,14.57
2022-10-16T03:54:59.708Z,14.57
2022-10-16T03:57:26.286Z,14.57
2022-10-16T03:59:52.931Z,14.57
2022-10-16T04:02:19.347Z,14.56
2022-10-16T04:04:45.696Z,14.53
2022-10-16T04:07:12.072Z,14.50
2022-10-16T04:09:38.620Z,14.50
2022-10-16T04:12:04.989Z,14.47
2022-10-16T04:14:31.478Z,14.44
2022-10-16T04:16:57.829Z,14.38
2022-10-16T04:19:24.372Z,14.38
2022-10-16T04:21:50.781Z,14.37
2022-10-16T04:24:17.147Z,14.32
2022-10-16T04:26:43.506Z,14.32
2022-10-16T04:29:09.913Z,14.31
2022-10-16T04:31:36.370Z,14.32
2022-10-16T04:34:02.865Z,14.32
2022-10-16T04:36:29.465Z,14.31
2022-10-16T04:38:56.012Z,14.29
2022-10-16T04:41:22.464Z,14.27
2022-10-16T04:43:48.873Z,14.23
2022-10-16T04:46:15.245Z,14.26
2022-10-16T04:48:41.631Z,14.23
2022-10-16T04:51:08.007Z,14.24
2022-10-16T04:53:35.196Z,14.26
2022-10-16T04:56:01.546Z,14.25
2022-10-16T04:58:27.914Z,14.27
2022-10-16T05:00:54.364Z,14.26
2022-10-16T05:03:20.945Z,14.29
2022-10-16T05:05:48.180Z,14.26
2022-10-16T05:08:15.744Z,14.22
2022-10-16T05:10:44.085Z,14.19
2022-10-16T05:13:11.447Z,14.17
2022-10-16T05:15:37.947Z,14.17
2022-10-16T05:18:04.390Z,14.16
2022-10-16T05:20:30.876Z,14.15
2022-10-16T05:22:57.300Z,14.22
2022-10-16T05:25:23.720Z,14.23
2022-10-16T05:27:50.697Z,14.23
2022-10-16T05:30:18.436Z,14.24
2022-10-16T05:32:49.762Z,14.25
2022-10-16T05:35:16.939Z,14.23
2022-10-16T05:37:45.011Z,14.27
2022-10-16T05:40:12.732Z,14.29
2022-10-16T05:42:39.625Z,14.30
2022-10-16T05:45:07.390Z,14.30
2022-10-16T05:47:33.764Z,14.31
2022-10-16T05:50:00.123Z,14.32
2022-10-16T05:52:27.809Z,14.34
2022-10-16T05:54:54.213Z,14.36
2022-10-16T05:57:20.966Z,14.40
2022-10-16T05:59:47.425Z,14.39
2022-10-16T06:02:14.914Z,14.42
2022-10-16T06:04:41.534Z,14.45
2022-10-16T06:07:07.952Z,14.47
2022-10-16T06:09:34.349Z,14.51
2022-10-16T06:12:00.784Z,14.53
2022-10-16T06:14:27.150Z,14.57
2022-10-16T06:16:53.528Z,14.60
2022-10-16T06:19:19.931Z,14.66
2022-10-16T06:21:46.313Z,14.70
2022-10-16T06:24:12.715Z,14.73
2022-10-16T06:26:39.522Z,14.75
2022-10-16T06:29:06.095Z,14.81
2022-10-16T06:31:34.239Z,14.84
2022-10-16T06:34:01.629Z,14.90
2022-10-16T06:36:28.569Z,14.94
2022-10-16T06:38:55.145Z,14.98
2022-10-16T06:41:23.002Z,15.00
2022-10-16T06:43:49.654Z,15.08
2022-10-16T06:46:18.379Z,15.11
2022-10-16T06:48:44.822Z,15.10
2022-10-16T06:51:13.522Z,15.11
2022-10-16T06:54:01.740Z,15.13
2022-10-16T06:56:31.580Z,15.11
2022-10-16T06:58:58.119Z,15.15
2022-10-16T07:01:25.341Z,15.15
2022-10-16T07:03:51.866Z,15.21
2022-10-16T07:06:21.285Z,15.24
2022-10-16T07:08:48.545Z,15.32
2022-10-16T07:11:18.832Z,15.40
2022-10-16T07:13:50.758Z,15.45
2022-10-16T07:16:22.800Z,15.50
2022-10-16T07:18:50.101Z,15.56
2022-10-16T07:21:20.266Z,15.62
2022-10-16T07:23:50.774Z,15.67
2022-10-16T07:26:17.252Z,15.68
2022-10-16T07:28:44.671Z,15.73
2022-10-16T07:31:14.199Z,15.77
2022-10-16T07:33:44.011Z,15.83
2022-10-16T07:36:15.835Z,15.88
2022-10-16T07:38:43.534Z,15.89
2022-10-16T07:41:15.714Z,15.92
2022-10-16T07:43:49.985Z,15.94
2022-10-16T07:46:17.492Z,15.93
2022-10-16T07:48:47.130Z,15.94
2022-10-16T07:51:24.706Z,15.94
2022-10-16T07:53:52.093Z,15.94
2022-10-16T07:56:19.642Z,15.96
2022-10-16T07:58:46.647Z,15.96
2022-10-16T08:01:15.292Z,16.03
2022-10-16T08:03:47.098Z,15.96
2022-10-16T08:06:13.834Z,16.06
2022-10-16T08:08:40.688Z,16.10
2022-10-16T08:11:07.101Z,16.16
2022-10-16T08:13:33.499Z,16.21
2022-10-16T08:16:00.265Z,16.23
2022-10-16T08:18:26.661Z,16.24
2022-10-16T08:20:57.779Z,16.27
2022-10-16T08:23:26.666Z,16.29
2022-10-16T08:25:56.792Z,16.28
2022-10-16T08:28:24.055Z,16.33
2022-10-16T08:30:50.677Z,16.37
2022-10-16T08:33:17.155Z,16.40
2022-10-16T08:35:43.529Z,16.44
2022-10-16T08:38:10.084Z,16.49
2022-10-16T08:40:38.444Z,16.52
2022-10-16T08:43:20.063Z,16.55
2022-10-16T08:46:23.433Z,16.62
2022-10-16T08:48:55.738Z,16.66
2022-10-16T08:51:29.012Z,16.75
2022-10-16T08:54:00.316Z,16.79
2022-10-16T08:56:27.323Z,16.81
2022-10-16T08:58:58.098Z,16.92
2022-10-16T09:01:42.398Z,17.00
2022-10-16T09:04:43.586Z,17.05
2022-10-16T09:07:31.297Z,17.12
2022-10-16T09:10:26.337Z,17.16
2022-10-16T09:13:03.561Z,17.16
2022-10-16T09:15:55.901Z,17.17
2022-10-16T09:18:48.329Z,17.18
2022-10-16T09:21:26.387Z,17.20
2022-10-16T09:23:54.793Z,17.18
2022-10-16T09:28:53.401Z,17.11
2022-10-16T09:31:22.550Z,17.10
2022-10-16T09:34:07.512Z,17.10
2022-10-16T09:36:43.944Z,17.10
2022-10-16T09:39:12.936Z,17.15
2022-10-16T09:41:45.952Z,17.17
2022-10-16T09:44:22.293Z,17.16
2022-10-16T09:46:48.682Z,17.23
2022-10-16T09:49:26.303Z,17.27
2022-10-16T09:52:04.997Z,17.36
2022-10-16T09:54:31.388Z,17.46
2022-10-16T09:57:13.398Z,17.59
2022-10-16T09:59:54.097Z,17.79
2022-10-16T10:02:36.716Z,17.97
2022-10-16T10:05:18.341Z,18.17
2022-10-16T10:07:46.868Z,18.27
2022-10-16T10:10:30.866Z,18.31
2022-10-16T10:12:58.000Z,18.27
2022-10-16T10:15:25.468Z,18.29
2022-10-16T10:17:58.183Z,18.26
2022-10-16T10:20:28.294Z,18.24
2022-10-16T10:22:56.534Z,18.27
2022-10-16T10:25:32.135Z,18.34
2022-10-16T10:28:36.252Z,18.39
2022-10-16T10:31:32.286Z,18.40
2022-10-16T10:34:10.908Z,18.41
2022-10-16T10:36:40.454Z,18.44
2022-10-16T10:39:15.105Z,18.44
2022-10-16T10:42:07.802Z,18.38
2022-10-16T10:44:49.349Z,18.41
2022-10-16T10:47:34.554Z,18.35
2022-10-16T10:50:39.492Z,18.34
2022-10-16T10:53:36.418Z,18.32
2022-10-16T10:56:41.503Z,18.33
2022-10-16T10:59:23.033Z,18.37
2022-10-16T11:01:59.970Z,18.44
2022-10-16T11:04:44.888Z,18.55
2022-10-16T11:07:36.109Z,18.68
2022-10-16T11:10:28.062Z,18.74
2022-10-16T11:13:16.613Z,18.75
2022-10-16T11:15:45.291Z,18.80
2022-10-16T11:18:26.137Z,18.88
2022-10-16T11:21:00.031Z,18.90
2022-10-16T11:23:32.176Z,18.89
2022-10-16T11:26:03.049Z,18.96
2022-10-16T11:28:39.248Z,19.27
2022-10-16T11:31:20.602Z,19.63
2022-10-16T11:33:55.966Z,20.05
2022-10-16T11:36:41.506Z,20.60
2022-10-16T11:39:07.842Z,21.02
2022-10-16T11:41:44.581Z,21.46
2022-10-16T11:44:32.423Z,21.90
2022-10-16T11:47:28.817Z,22.05
2022-10-16T11:49:58.637Z,22.36
2022-10-16T11:52:49.472Z,22.60
2022-10-16T11:55:20.891Z,22.91
2022-10-16T12:00:31.931Z,23.46
2022-10-16T12:03:10.632Z,23.76
2022-10-16T12:06:11.841Z,24.03
2022-10-16T12:08:38.524Z,24.21
2022-10-16T12:11:10.964Z,24.36
2022-10-16T12:13:40.295Z,24.43
2022-10-16T12:16:13.015Z,24.49
2022-10-16T12:18:45.555Z,24.37
2022-10-16T12:21:16.664Z,24.51
2022-10-16T12:23:54.809Z,24.57
2022-10-16T12:26:29.950Z,24.27
2022-10-16T12:28:58.006Z,23.84
2022-10-16T12:31:49.789Z,23.72
2022-10-16T12:34:30.219Z,24.03
2022-10-16T12:37:07.859Z,24.41
2022-10-16T12:39:34.357Z,24.44
2022-10-16T12:42:06.915Z,24.33
2022-10-16T12:44:36.674Z,24.35
2022-10-16T12:47:03.967Z,24.25
2022-10-16T12:49:36.470Z,24.11
2022-10-16T12:52:02.923Z,23.98
2022-10-16T12:54:32.633Z,24.16
2022-10-16T12:57:30.609Z,24.54
2022-10-16T13:00:09.828Z,24.87
2022-10-16T13:03:00.873Z,25.10
2022-10-16T13:05:33.249Z,25.31
2022-10-16T13:08:11.873Z,25.49
2022-10-16T13:10:54.288Z,25.66
2022-10-16T13:13:39.487Z,25.69
2022-10-16T13:16:18.028Z,25.70
2022-10-16T13:18:56.480Z,25.75
2022-10-16T13:21:38.225Z,25.83
2022-10-16T13:24:23.036Z,25.95
2022-10-16T13:27:04.588Z,26.19
2022-10-16T13:29:32.817Z,26.42
2022-10-16T13:32:01.673Z,26.59
2022-10-16T13:34:28.876Z,26.67
2022-10-16T13:36:55.334Z,26.65
2022-10-16T13:39:30.245Z,26.93
2022-10-16T13:42:08.884Z,27.27
2022-10-16T13:44:46.864Z,27.42
2022-10-16T13:47:21.378Z,27.22
2022-10-16T13:49:59.833Z,26.83
2022-10-16T13:52:26.314Z,26.34
2022-10-16T13:54:52.854Z,26.18
2022-10-16T13:57:27.288Z,26.04
2022-10-16T13:59:55.705Z,25.91
2022-10-16T14:02:30.476Z,25.85
2022-10-16T14:04:58.486Z,25.92
2022-10-16T14:07:30.800Z,25.84
2022-10-16T14:10:19.580Z,25.90
2022-10-16T14:12:46.813Z,25.95
2022-10-16T14:15:18.492Z,26.07
2022-10-16T14:17:48.749Z,26.25
2022-10-16T14:20:16.952Z,26.61
2022-10-16T14:22:44.309Z,26.79
2022-10-16T14:25:20.125Z,27.01
2022-10-16T14:27:57.842Z,27.19
2022-10-16T14:30:24.481Z,27.16
2022-10-16T14:33:01.642Z,27.07
2022-10-16T14:35:39.954Z,26.98
2022-10-16T14:38:16.831Z,26.98
2022-10-16T14:40:49.020Z,27.07
2022-10-16T14:43:27.248Z,26.81
2022-10-16T14:45:56.777Z,26.68
2022-10-16T14:48:23.677Z,26.54
2022-10-16T14:50:50.419Z,26.37
2022-10-16T14:53:17.084Z,26.02
2022-10-16T14:55:44.322Z,25.62
2022-10-16T14:58:24.183Z,25.67
2022-10-16T15:00:50.627Z,25.31
2022-10-16T15:03:17.149Z,24.87
2022-10-16T15:05:43.572Z,24.41
2022-10-16T15:08:10.137Z,23.99
2022-10-16T15:10:40.507Z,23.64
2022-10-16T15:13:06.927Z,23.34
2022-10-16T15:15:40.109Z,23.09
2022-10-16T15:18:06.500Z,22.87
2022-10-16T15:20:38.153Z,22.62
2022-10-16T15:23:10.712Z,22.50
2022-10-16T15:25:54.362Z,22.51
2022-10-16T15:28:22.045Z,22.48
2022-10-16T15:30:51.536Z,22.42
2022-10-16T15:33:20.276Z,22.34
2022-10-16T15:35:50.887Z,22.19
2022-10-16T15:38:19.482Z,22.07
2022-10-16T15:40:47.999Z,21.93
2022-10-16T15:43:14.468Z,21.77
2022-10-16T15:45:41.076Z,21.69
2022-10-16T15:48:11.116Z,21.62
2022-10-16T15:50:38.839Z,21.50
2022-10-16T15:53:05.298Z,21.43
2022-10-16T15:55:31.756Z,21.38
2022-10-16T15:57:58.144Z,21.30
2022-10-16T16:00:26.455Z,21.24
2022-10-16T16:02:54.690Z,21.20
2022-10-16T16:05:22.977Z,21.09
2022-10-16T16:07:49.637Z,21.02
2022-10-16T16:10:16.628Z,20.96
2022-10-16T16:12:43.101Z,20.86
2022-10-16T16:15:10.780Z,20.78
2022-10-16T16:17:37.922Z,20.71
2022-10-16T16:20:06.011Z,20.63
2022-10-16T16:22:32.495Z,20.56
2022-10-16T16:24:58.922Z,20.49
2022-10-16T16:27:30.711Z,20.42
2022-10-16T16:29:57.422Z,20.35
2022-10-16T16:32:23.839Z,20.27
2022-10-16T16:34:50.232Z,20.23
2022-10-16T16:37:16.931Z,20.21
2022-10-16T16:39:43.578Z,20.16
2022-10-16T16:42:11.032Z,20.15
2022-10-16T16:44:37.659Z,20.11
2022-10-16T16:47:05.641Z,20.05
2022-10-16T16:49:32.762Z,20.02
2022-10-16T16:51:59.417Z,19.98
2022-10-16T16:54:25.958Z,19.94
2022-10-16T16:56:52.472Z,19.88
2022-10-16T16:59:21.164Z,19.81
2022-10-16T17:01:49.960Z,19.77
2022-10-16T17:04:19.742Z,19.68
2022-10-16T17:06:46.489Z,19.66
2022-10-16T17:09:14.215Z,19.62
2022-10-16T17:11:42.453Z,19.55
2022-10-16T17:14:09.093Z,19.48
2022-10-16T17:16:37.753Z,19.44
2022-10-16T17:19:09.464Z,19.41
2022-10-16T17:21:36.508Z,19.39
2022-10-16T17:24:03.732Z,19.30
2022-10-16T17:26:30.529Z,19.29
2022-10-16T17:28:59.386Z,19.28
2022-10-16T17:31:29.369Z,19.24
2022-10-16T17:33:56.379Z,19.17
2022-10-16T17:36:23.620Z,19.18
2022-10-16T17:38:50.147Z,19.16
2022-10-16T17:41:19.383Z,19.11
2022-10-16T17:43:46.658Z,19.08
2022-10-16T17:46:14.611Z,19.05
2022-10-16T17:48:44.205Z,18.99
2022-10-16T17:51:13.309Z,18.97
2022-10-16T17:53:40.147Z,18.95
2022-10-16T17:56:12.013Z,18.94
2022-10-16T17:58:39.223Z,18.83
2022-10-16T18:01:22.353Z,18.72
2022-10-16T18:03:51.086Z,18.61
2022-10-16T18:06:22.833Z,18.53
2022-10-16T18:08:51.105Z,18.41
2022-10-16T18:11:18.110Z,18.28
2022-10-16T18:13:44.519Z,18.17
2022-10-16T18:16:13.711Z,18.09
2022-10-16T18:18:41.667Z,18.01
2022-10-16T18:21:11.023Z,17.94
2022-10-16T18:23:39.020Z,17.87
2022-10-16T18:26:07.072Z,17.79
2022-10-16T18:28:33.794Z,17.68
2022-10-16T18:31:06.219Z,17.67
2022-10-16T18:33:33.560Z,17.62
2022-10-16T18:36:05.035Z,17.57
2022-10-16T18:38:31.675Z,17.53
2022-10-16T18:40:58.463Z,17.42
2022-10-16T18:43:24.832Z,17.47
2022-10-16T18:46:04.388Z,17.45
2022-10-16T18:48:32.004Z,17.42
2022-10-16T18:51:10.197Z,17.39
2022-10-16T18:53:38.111Z,17.36
2022-10-16T18:56:04.976Z,17.31
2022-10-16T18:58:31.841Z,17.34
2022-10-16T19:01:04.557Z,17.33
2022-10-16T19:03:31.671Z,17.31
2022-10-16T19:06:08.200Z,17.28
2022-10-16T19:08:38.716Z,17.25
2022-10-16T19:11:10.484Z,17.21
2022-10-16T19:13:36.948Z,17.20
2022-10-16T19:16:19.428Z,17.17
2022-10-16T19:18:47.328Z,17.13
2022-10-16T19:21:15.037Z,17.13
2022-10-16T19:23:42.130Z,17.10
2022-10-16T19:26:13.966Z,17.10
2022-10-16T19:28:41.045Z,17.06
2022-10-16T19:31:13.144Z,17.07
2022-10-16T19:33:40.804Z,17.08
2022-10-16T19:36:18.455Z,17.08
2022-10-16T19:38:46.777Z,17.06
2022-10-16T19:41:15.890Z,17.03
2022-10-16T19:43:43.384Z,17.05
2022-10-16T19:46:12.792Z,17.03
2022-10-16T19:48:40.298Z,16.99
2022-10-16T19:51:10.271Z,16.91
2022-10-16T19:53:36.693Z,16.85
2022-10-16T19:56:21.948Z,16.81
2022-10-16T19:58:49.222Z,16.68
2022-10-16T20:01:16.613Z,16.68
2022-10-16T20:03:43.900Z,16.63
2022-10-16T20:06:10.719Z,16.60
2022-10-16T20:08:38.394Z,16.56
2022-10-16T20:11:06.293Z,16.52
2022-10-16T20:13:34.075Z,16.44
2022-10-16T20:16:06.064Z,16.38
2022-10-16T20:18:32.829Z,16.32
2022-10-16T20:20:59.306Z,16.29
2022-10-16T20:23:26.137Z,16.31
2022-10-16T20:25:52.911Z,16.29
2022-10-16T20:28:21.459Z,16.29
2022-10-16T20:30:50.533Z,16.25
2022-10-16T20:33:17.832Z,16.24
2022-10-16T20:35:49.197Z,16.23
2022-10-16T20:38:17.574Z,16.21
2022-10-16T20:40:46.802Z,16.16
2022-10-16T20:43:15.872Z,16.06
2022-10-16T20:45:42.375Z,15.99
2022-10-16T20:48:11.128Z,15.87
2022-10-16T20:50:37.957Z,15.94
2022-10-16T20:53:04.353Z,15.99
2022-10-16T20:55:31.297Z,15.94
2022-10-16T20:57:57.726Z,15.92
2022-10-16T21:00:24.107Z,15.82
2022-10-16T21:02:51.665Z,15.75
2022-10-16T21:05:18.816Z,15.68
2022-10-16T21:07:45.939Z,15.68
2022-10-16T21:10:12.937Z,15.63
2022-10-16T21:12:39.352Z,15.58
2022-10-16T21:15:15.165Z,15.51
2022-10-16T21:17:42.235Z,15.42
2022-10-16T21:20:09.049Z,15.36
2022-10-16T21:22:35.463Z,15.31
2022-10-16T21:25:01.898Z,15.27
2022-10-16T21:27:28.267Z,15.29
2022-10-16T21:29:54.713Z,15.26
2022-10-16T21:32:21.418Z,15.28
2022-10-16T21:34:48.205Z,15.26
2022-10-16T21:37:14.721Z,15.22
2022-10-16T21:39:41.404Z,15.15
2022-10-16T21:42:07.843Z,15.10
2022-10-16T21:44:34.244Z,15.08
2022-10-16T21:47:00.624Z,15.08
2022-10-16T21:49:27.234Z,15.10
2022-10-16T21:51:53.658Z,15.04
2022-10-16T21:54:22.488Z,15.00
2022-10-16T21:56:48.946Z,14.93
2022-10-16T21:59:15.679Z,14.84
2022-10-16T22:01:43.043Z,14.87
2022-10-16T22:04:14.319Z,14.88
2022-10-16T22:06:40.952Z,14.85
2022-10-16T22:09:07.655Z,14.74
2022-10-16T22:11:36.994Z,14.66
2022-10-16T22:14:13.222Z,14.67
2022-10-16T22:16:39.932Z,14.66
2022-10-16T22:19:07.200Z,14.66
2022-10-16T22:21:38.943Z,14.69
2022-10-16T22:24:06.412Z,14.75
2022-10-16T22:26:33.776Z,14.80
2022-10-16T22:29:00.258Z,14.83
2022-10-16T22:31:27.008Z,14.83
2022-10-16T22:34:01.825Z,14.91
2022-10-16T22:36:28.773Z,15.02
2022-10-16T22:38:55.801Z,15.09
2022-10-16T22:41:22.956Z,15.17
2022-10-16T22:43:49.726Z,15.21
2022-10-16T22:46:24.387Z,15.29
2022-10-16T22:48:51.533Z,15.28
2022-10-16T22:51:18.479Z,15.26
2022-10-16T22:53:46.626Z,15.21
2022-10-16T22:56:13.841Z,15.24
2022-10-16T22:58:40.273Z,15.27
2022-10-16T23:01:34.708Z,15.35
2022-10-16T23:04:01.533Z,15.38
2022-10-16T23:06:30.044Z,15.35
2022-10-16T23:08:59.239Z,15.36
2022-10-16T23:11:27.739Z,15.31
2022-10-16T23:13:54.761Z,15.29
2022-10-16T23:16:22.963Z,15.31
2022-10-16T23:18:50.165Z,15.32
2022-10-16T23:21:20.831Z,15.36
2022-10-16T23:23:47.698Z,15.39
2022-10-16T23:26:17.433Z,15.43
2022-10-16T23:28:44.150Z,15.45
2022-10-16T23:31:12.675Z,15.50
2022-10-16T23:33:39.936Z,15.58
2022-10-16T23:36:08.860Z,15.70
2022-10-16T23:38:35.467Z,15.79
2022-10-16T23:41:02.202Z,15.76
2022-10-16T23:43:29.011Z,15.67
2022-10-16T23:45:55.473Z,15.70
2022-10-16T23:48:21.935Z,15.69
2022-10-16T23:50:48.318Z,15.67
2022-10-16T23:53:15.075Z,15.66
2022-10-16T23:55:41.769Z,15.63
2022-10-16T23:58:08.457Z,15.60
